首页
METAR-TAF:

METAR-TAF

机场 :

Nörvenich, 德国

纬度: 50-50N, 经度: 006-40E, 海拔: 118米

当前天气观测

该预报发布于51分钟前的21:20 UTC
风速3节,风向多变
温度 23°C
湿度 73%
气压 1015 hPa
能见度10公里或以上
少量云层高于6000英尺, 积雨云.
多云层高于12000英尺
附近有雷暴

METAR: ETNN 112120Z VRB03KT 9999 VCTS FEW060CB BKN120 23/18 Q1015 BLU

时间: 00:11 (22:11 UTC)

预报

该预报发布于9小时和11分钟前的13:00 UTC
预报有效从11日的 14点(UTC)到 11日的 23点(UTC)
风速8节,风向东转东南
能见度10公里或以上
少量云层高于6000英尺
散云层高于14000英尺
散云层高于35000英尺
短暂存在
从 11日的 14点(UTC)到 11日的 20点(UTC)
风速10节,风向多变,有时为30节阵风
能見度: 8000
多云层高于6000英尺, 积雨云.
雷暴, 小雨
几率 30%
从 11日的 14点(UTC)到 11日的 20点(UTC)
风速10节,风向多变,有时为35节阵风
能見度: 2000
多云层高于1000英尺
多云层高于6000英尺, 积雨云.
雷暴, 雨, 冰雹

TAF: ETNN 111300Z 1114/1123 12008KT 9999 NSW FEW060 SCT140 SCT350 TEMPO 1114/1120 VRB10G30KT 8000 -TSRA BKN060CB PROB30 1114/1120 VRB10G35KT 2000 TSRAGR BKN010 BKN060CB BY ETGL

超过4000个机场的气象观测和天气预报(METAR&TAF报告)。

可查询的气象台以黄色和红色小点在地图上表示。

将鼠标移到小点上方,可查看气象台名称。

然后点击查看天气观测和预报。

如需切换地图:点击带黑十字的绿色按钮放大地图;点击带横线的绿色按钮缩小地图;或者点击绿色箭头查看邻近地区的地图。


METAR-TAF: